createdAt,value
2022-10-29T00:02:21.483Z,101457.38
2022-10-29T00:04:48.836Z,101456.47
2022-10-29T00:07:16.028Z,101455.38
2022-10-29T00:09:43.262Z,101449.63
2022-10-29T00:12:10.491Z,101442.91
2022-10-29T00:14:37.841Z,101436.47
2022-10-29T00:17:05.071Z,101428.84
2022-10-29T00:19:32.306Z,101417.81
2022-10-29T00:21:59.553Z,101410.16
2022-10-29T00:24:26.809Z,101418.56
2022-10-29T00:26:54.163Z,101413.47
2022-10-29T00:29:21.349Z,101417.00
2022-10-29T00:31:50.472Z,101411.94
2022-10-29T00:34:17.717Z,101423.41
2022-10-29T00:36:45.009Z,101414.34
2022-10-29T00:39:16.177Z,101406.13
2022-10-29T00:41:43.707Z,101398.38
2022-10-29T00:44:23.042Z,101400.69
2022-10-29T00:46:56.752Z,101404.44
2022-10-29T00:49:25.318Z,101400.91
2022-10-29T00:51:52.711Z,101381.38
2022-10-29T00:54:19.930Z,101381.47
2022-10-29T00:57:00.586Z,101391.91
2022-10-29T00:59:27.943Z,101390.38
2022-10-29T01:01:56.143Z,101383.53
2022-10-29T01:04:24.786Z,101358.13
2022-10-29T01:06:52.761Z,101352.56
2022-10-29T01:09:19.958Z,101348.66
2022-10-29T01:11:59.845Z,101352.41
2022-10-29T01:14:33.047Z,101350.03
2022-10-29T01:17:12.092Z,101349.81
2022-10-29T01:20:12.657Z,101348.28
2022-10-29T01:22:44.920Z,101342.16
2022-10-29T01:25:32.112Z,101343.53
2022-10-29T01:28:07.578Z,101344.78
2022-10-29T01:30:58.184Z,101342.81
2022-10-29T01:33:37.302Z,101343.44
2022-10-29T01:36:10.623Z,101343.66
2022-10-29T01:38:48.006Z,101332.53
2022-10-29T01:41:20.919Z,101328.16
2022-10-29T01:44:02.010Z,101338.06
2022-10-29T01:46:39.829Z,101313.56
2022-10-29T01:49:12.441Z,101308.25
2022-10-29T01:51:40.195Z,101307.53
2022-10-29T01:54:09.565Z,101286.50
2022-10-29T01:56:37.147Z,101294.31
2022-10-29T01:59:11.351Z,101298.19
2022-10-29T02:01:55.380Z,101295.56
2022-10-29T02:04:53.533Z,101270.28
2022-10-29T02:07:35.159Z,101274.09
2022-10-29T02:10:24.895Z,101268.91
2022-10-29T02:12:54.108Z,101264.13
2022-10-29T02:15:29.803Z,101254.69
2022-10-29T02:18:01.737Z,101251.56
2022-10-29T02:20:29.486Z,101260.03
2022-10-29T02:22:57.296Z,101260.97
2022-10-29T02:25:24.884Z,101267.78
2022-10-29T02:27:52.329Z,101262.16
2022-10-29T02:30:19.691Z,101250.38
2022-10-29T02:32:46.912Z,101244.75
2022-10-29T02:35:14.188Z,101249.81
2022-10-29T02:37:41.447Z,101247.31
2022-10-29T02:40:09.471Z,101237.81
2022-10-29T02:42:36.785Z,101242.94
2022-10-29T02:45:04.417Z,101237.19
2022-10-29T02:47:31.655Z,101235.03
2022-10-29T02:49:58.899Z,101234.56
2022-10-29T02:52:26.161Z,101243.03
2022-10-29T02:54:53.940Z,101242.66
2022-10-29T02:57:21.255Z,101226.84
2022-10-29T02:59:48.496Z,101229.72
2022-10-29T03:02:15.762Z,101223.31
2022-10-29T03:04:44.319Z,101215.28
2022-10-29T03:07:11.528Z,101211.66
2022-10-29T03:09:38.744Z,101212.19
2022-10-29T03:12:06.536Z,101205.88
2022-10-29T03:14:33.735Z,101204.47
2022-10-29T03:17:01.011Z,101202.84
2022-10-29T03:19:28.271Z,101209.25
2022-10-29T03:21:55.486Z,101210.13
2022-10-29T03:24:22.863Z,101211.75
2022-10-29T03:26:50.033Z,101199.31
2022-10-29T03:29:17.205Z,101206.28
2022-10-29T03:31:44.569Z,101209.16
2022-10-29T03:34:11.776Z,101220.66
2022-10-29T03:36:38.995Z,101213.19
2022-10-29T03:39:06.403Z,101216.88
2022-10-29T03:41:33.554Z,101224.81
2022-10-29T03:44:00.747Z,101218.31
2022-10-29T03:46:27.985Z,101194.25
2022-10-29T03:48:55.221Z,101210.28
2022-10-29T03:51:22.439Z,101209.53
2022-10-29T03:53:49.678Z,101213.75
2022-10-29T03:56:16.984Z,101179.53
2022-10-29T03:58:44.281Z,101182.59
2022-10-29T04:01:11.722Z,101187.97
2022-10-29T04:03:41.357Z,101195.03
2022-10-29T04:06:14.795Z,101205.44
2022-10-29T04:08:42.549Z,101214.59
2022-10-29T04:11:13.452Z,101215.81
2022-10-29T04:13:40.957Z,101211.75
2022-10-29T04:16:08.239Z,101214.38
2022-10-29T04:18:35.543Z,101210.28
2022-10-29T04:23:08.096Z,101221.38
2022-10-29T04:29:24.840Z,101208.59
2022-10-29T04:31:52.424Z,101202.91
2022-10-29T04:34:19.656Z,101195.47
2022-10-29T04:36:46.909Z,101194.34
2022-10-29T04:39:15.441Z,101177.47
2022-10-29T04:41:44.283Z,101198.59
2022-10-29T04:44:11.386Z,101204.91
2022-10-29T04:46:38.606Z,101195.69
2022-10-29T04:49:05.836Z,101186.78
2022-10-29T04:51:33.156Z,101191.44
2022-10-29T04:54:00.498Z,101185.91
2022-10-29T04:56:30.019Z,101184.34
2022-10-29T04:58:57.271Z,101184.88
2022-10-29T05:01:24.639Z,101180.03
2022-10-29T05:03:55.558Z,101183.06
2022-10-29T05:06:26.192Z,101179.44
2022-10-29T05:08:53.369Z,101174.13
2022-10-29T05:11:20.562Z,101176.63
2022-10-29T05:13:47.763Z,101171.34
2022-10-29T05:16:14.960Z,101170.59
2022-10-29T05:18:42.174Z,101162.13
2022-10-29T05:21:09.419Z,101170.44
2022-10-29T05:23:36.644Z,101173.84
2022-10-29T05:26:04.075Z,101173.47
2022-10-29T05:28:31.329Z,101167.28
2022-10-29T05:31:00.785Z,101156.75
2022-10-29T05:33:28.191Z,101153.06
2022-10-29T05:35:55.879Z,101150.19
2022-10-29T05:38:23.083Z,101139.00
2022-10-29T05:40:50.269Z,101134.97
2022-10-29T05:43:17.706Z,101131.69
2022-10-29T05:45:45.382Z,101139.69
2022-10-29T05:50:44.846Z,101141.25
2022-10-29T05:53:13.563Z,101134.78
2022-10-29T05:55:41.620Z,101138.03
2022-10-29T05:58:13.529Z,101140.44
2022-10-29T06:00:44.990Z,101138.47
2022-10-29T06:03:20.762Z,101135.22
2022-10-29T06:05:48.989Z,101131.16
2022-10-29T06:08:16.976Z,101128.00
2022-10-29T06:10:44.458Z,101129.97
2022-10-29T06:13:12.213Z,101127.53
2022-10-29T06:15:39.531Z,101126.28
2022-10-29T06:18:06.966Z,101112.94
2022-10-29T06:20:34.270Z,101116.47
2022-10-29T06:23:01.484Z,101126.94
2022-10-29T06:25:28.824Z,101128.47
2022-10-29T06:28:03.275Z,101128.81
2022-10-29T06:30:31.688Z,101134.66
2022-10-29T06:32:59.806Z,101151.44
2022-10-29T06:35:27.615Z,101165.22
2022-10-29T06:37:55.639Z,101159.09
2022-10-29T06:40:23.615Z,101150.56
2022-10-29T06:42:58.558Z,101134.22
2022-10-29T06:45:28.673Z,101151.59
2022-10-29T06:47:56.619Z,101154.47
2022-10-29T06:50:24.543Z,101159.59
2022-10-29T06:52:59.753Z,101158.44
2022-10-29T06:55:27.924Z,101156.41
2022-10-29T06:58:12.745Z,101153.91
2022-10-29T07:00:42.282Z,101144.06
2022-10-29T07:03:16.631Z,101136.22
2022-10-29T07:05:43.961Z,101137.31
2022-10-29T07:08:11.558Z,101129.63
2022-10-29T07:10:39.031Z,101136.25
2022-10-29T07:13:06.238Z,101145.25
2022-10-29T07:15:33.498Z,101133.53
2022-10-29T07:18:03.152Z,101131.50
2022-10-29T07:20:33.104Z,101131.53
2022-10-29T07:23:01.406Z,101132.78
2022-10-29T07:25:29.675Z,101136.84
2022-10-29T07:28:03.658Z,101128.44
2022-10-29T07:30:31.303Z,101119.88
2022-10-29T07:32:58.472Z,101125.91
2022-10-29T07:35:25.757Z,101128.00
2022-10-29T07:37:53.344Z,101124.63
2022-10-29T07:40:20.962Z,101123.88
2022-10-29T07:42:52.190Z,101116.78
2022-10-29T07:45:19.444Z,101123.19
2022-10-29T07:47:46.748Z,101124.03
2022-10-29T07:50:14.388Z,101119.78
2022-10-29T07:52:41.821Z,101124.16
2022-10-29T07:55:09.358Z,101121.16
2022-10-29T07:57:36.687Z,101125.03
2022-10-29T08:00:04.212Z,101133.16
2022-10-29T08:02:39.540Z,101135.94
2022-10-29T08:05:07.161Z,101146.66
2022-10-29T08:07:34.425Z,101144.81
2022-10-29T08:10:01.808Z,101145.72
2022-10-29T08:12:29.046Z,101147.25
2022-10-29T08:14:56.283Z,101150.47
2022-10-29T08:17:23.530Z,101145.78
2022-10-29T08:19:50.792Z,101154.63
2022-10-29T08:22:18.012Z,101150.72
2022-10-29T08:24:45.318Z,101148.16
2022-10-29T08:27:12.662Z,101154.50
2022-10-29T08:29:40.016Z,101160.84
2022-10-29T08:32:07.303Z,101145.13
2022-10-29T08:34:34.559Z,101162.56
2022-10-29T08:37:02.141Z,101154.38
2022-10-29T08:39:29.393Z,101144.66
2022-10-29T08:42:29.525Z,101148.13
2022-10-29T08:45:25.934Z,101140.47
2022-10-29T08:48:22.423Z,101148.53
2022-10-29T08:51:01.747Z,101134.03
2022-10-29T08:53:39.251Z,101141.91
2022-10-29T08:56:14.504Z,101140.00
2022-10-29T08:59:04.013Z,101136.00
2022-10-29T09:01:31.670Z,101129.31
2022-10-29T09:03:58.946Z,101130.69
2022-10-29T09:06:45.679Z,101136.97
2022-10-29T09:09:33.384Z,101145.94
2022-10-29T09:12:20.502Z,101140.78
2022-10-29T09:15:05.971Z,101150.63
2022-10-29T09:17:39.364Z,101149.28
2022-10-29T09:20:43.890Z,101148.78
2022-10-29T09:23:26.045Z,101144.47
2022-10-29T09:26:03.224Z,101139.44
2022-10-29T09:28:36.796Z,101137.66
2022-10-29T09:31:22.212Z,101140.38
2022-10-29T09:33:51.217Z,101144.72
2022-10-29T09:36:20.496Z,101142.72
2022-10-29T09:38:56.544Z,101150.75
2022-10-29T09:41:27.111Z,101139.22
2022-10-29T09:44:04.733Z,101144.88
2022-10-29T09:46:35.178Z,101148.09
2022-10-29T09:49:04.190Z,101139.03
2022-10-29T09:51:36.464Z,101134.59
2022-10-29T09:54:04.311Z,101124.91
2022-10-29T09:56:31.692Z,101135.00
2022-10-29T09:59:11.808Z,101130.03
2022-10-29T10:01:39.731Z,101124.63
2022-10-29T10:04:15.759Z,101132.41
2022-10-29T10:07:06.044Z,101139.53
2022-10-29T10:09:52.867Z,101132.25
2022-10-29T10:12:22.820Z,101128.72
2022-10-29T10:15:03.092Z,101129.59
2022-10-29T10:17:57.726Z,101120.31
2022-10-29T10:20:41.157Z,101129.00
2022-10-29T10:23:45.311Z,101125.91
2022-10-29T10:26:32.637Z,101127.41
2022-10-29T10:29:21.253Z,101127.03
2022-10-29T10:31:50.605Z,101131.66
2022-10-29T10:34:22.108Z,101121.22
2022-10-29T10:36:52.362Z,101127.75
2022-10-29T10:39:23.901Z,101119.59
2022-10-29T10:41:51.688Z,101115.13
2022-10-29T10:44:19.951Z,101119.09
2022-10-29T10:46:47.962Z,101103.59
2022-10-29T10:49:17.710Z,101108.50
2022-10-29T10:51:55.117Z,101106.69
2022-10-29T10:54:33.921Z,101096.53
2022-10-29T10:57:05.981Z,101085.19
2022-10-29T11:00:00.400Z,101082.53
2022-10-29T11:02:30.658Z,101076.22
2022-10-29T11:05:12.519Z,101069.41
2022-10-29T11:07:42.452Z,101056.00
2022-10-29T11:10:12.533Z,101066.19
2022-10-29T11:12:39.592Z,101068.22
2022-10-29T11:15:22.053Z,101076.47
2022-10-29T11:17:55.047Z,101080.22
2022-10-29T11:20:26.241Z,101082.63
2022-10-29T11:23:08.723Z,101076.97
2022-10-29T11:25:42.693Z,101076.97
2022-10-29T11:28:21.764Z,101075.50
2022-10-29T11:31:03.075Z,101077.56
2022-10-29T11:33:42.057Z,101067.81
2022-10-29T11:36:15.069Z,101055.53
2022-10-29T11:38:52.439Z,101054.66
2022-10-29T11:41:25.221Z,101045.94
2022-10-29T11:43:53.083Z,101050.34
2022-10-29T11:46:59.770Z,101046.03
2022-10-29T11:49:39.297Z,101042.63
2022-10-29T11:52:12.676Z,101041.81
2022-10-29T11:54:52.085Z,101030.72
2022-10-29T11:57:34.642Z,101031.94
2022-10-29T12:00:16.828Z,101032.28
2022-10-29T12:03:04.221Z,101029.22
2022-10-29T12:05:56.262Z,101019.13
2022-10-29T12:08:32.376Z,101011.91
2022-10-29T12:10:59.525Z,101012.28
2022-10-29T12:13:42.429Z,101013.13
2022-10-29T12:16:28.765Z,101010.84
2022-10-29T12:19:05.508Z,101010.09
2022-10-29T12:21:48.907Z,101012.91
2022-10-29T12:24:31.895Z,101006.81
2022-10-29T12:27:01.969Z,101000.09
2022-10-29T12:29:44.205Z,101002.44
2022-10-29T12:32:19.533Z,101000.94
2022-10-29T12:34:52.878Z,100984.44
2022-10-29T12:37:42.086Z,100999.34
2022-10-29T12:40:20.033Z,100992.53
2022-10-29T12:42:48.487Z,100999.00
2022-10-29T12:45:27.495Z,100986.97
2022-10-29T12:48:05.830Z,100983.84
2022-10-29T12:50:48.860Z,100983.03
2022-10-29T12:53:35.455Z,100983.84
2022-10-29T12:56:03.838Z,100988.63
2022-10-29T12:58:53.100Z,100993.41
2022-10-29T13:01:50.133Z,100994.28
2022-10-29T13:04:24.763Z,100995.13
2022-10-29T13:07:08.566Z,100991.09
2022-10-29T13:09:37.192Z,100984.22
2022-10-29T13:12:09.830Z,100993.81
2022-10-29T13:14:42.661Z,100992.97
2022-10-29T13:17:28.969Z,100993.88
2022-10-29T13:20:01.152Z,100999.44
2022-10-29T13:22:33.303Z,101005.47
2022-10-29T13:25:37.949Z,101003.16
2022-10-29T13:28:08.149Z,101004.25
2022-10-29T13:30:37.032Z,101004.69
2022-10-29T13:33:26.155Z,101000.63
2022-10-29T13:35:54.581Z,100995.81
2022-10-29T13:38:51.786Z,100991.00
2022-10-29T13:41:40.203Z,100988.50
2022-10-29T13:44:07.431Z,101001.03
2022-10-29T13:46:44.940Z,101004.22
2022-10-29T13:49:27.772Z,101002.69
2022-10-29T13:52:01.208Z,100987.75
2022-10-29T13:54:35.736Z,100992.22
2022-10-29T13:57:12.320Z,100984.16
2022-10-29T14:00:06.749Z,100984.97
2022-10-29T14:02:39.269Z,100986.97
2022-10-29T14:05:17.345Z,100996.28
2022-10-29T14:08:07.563Z,100993.81
2022-10-29T14:10:58.091Z,100999.06
2022-10-29T14:13:42.801Z,100986.66
2022-10-29T14:16:11.998Z,100982.16
2022-10-29T14:18:41.266Z,100990.25
2022-10-29T14:21:26.137Z,100993.47
2022-10-29T14:23:58.813Z,100990.63
2022-10-29T14:26:31.050Z,100984.63
2022-10-29T14:29:18.837Z,100971.38
2022-10-29T14:31:47.657Z,100975.31
2022-10-29T14:34:28.592Z,100973.69
2022-10-29T14:37:02.347Z,100976.53
2022-10-29T14:39:55.219Z,100966.50
2022-10-29T14:42:40.521Z,100975.31
2022-10-29T14:45:17.493Z,100965.28
2022-10-29T14:47:52.256Z,100976.19
2022-10-29T14:50:24.456Z,100967.34
2022-10-29T14:52:59.468Z,100955.31
2022-10-29T14:55:31.351Z,100975.41
2022-10-29T14:58:05.174Z,100972.63
2022-10-29T15:00:35.821Z,100971.00
2022-10-29T15:03:04.254Z,100972.13
2022-10-29T15:05:36.725Z,100977.41
2022-10-29T15:08:11.234Z,100976.09
2022-10-29T15:11:27.827Z,100977.81
2022-10-29T15:13:55.194Z,100977.84
2022-10-29T15:16:22.575Z,100981.69
2022-10-29T15:18:52.231Z,100966.09
2022-10-29T15:21:25.338Z,100953.22
2022-10-29T15:24:21.122Z,100973.78
2022-10-29T15:26:51.907Z,100982.13
2022-10-29T15:29:33.400Z,100979.72
2022-10-29T15:32:02.171Z,100985.03
2022-10-29T15:34:34.483Z,100989.09
2022-10-29T15:37:22.142Z,100994.28
2022-10-29T15:39:55.741Z,100983.50
2022-10-29T15:42:25.631Z,100987.44
2022-10-29T15:45:08.394Z,100972.53
2022-10-29T15:47:37.596Z,100984.22
2022-10-29T15:50:07.685Z,100961.31
2022-10-29T15:52:39.593Z,100977.34
2022-10-29T15:55:23.427Z,100971.72
2022-10-29T15:57:55.276Z,100965.34
2022-10-29T16:00:24.126Z,100965.75
2022-10-29T16:02:51.512Z,100960.94
2022-10-29T16:05:18.841Z,100965.22
2022-10-29T16:07:47.529Z,100974.53
2022-10-29T16:10:17.330Z,100984.56
2022-10-29T16:12:45.632Z,100980.16
2022-10-29T16:15:18.023Z,100986.97
2022-10-29T16:17:46.288Z,100989.38
2022-10-29T16:20:15.525Z,100992.97
2022-10-29T16:22:43.022Z,100990.13
2022-10-29T16:25:21.639Z,100998.13
2022-10-29T16:27:49.074Z,101004.13
2022-10-29T16:30:16.590Z,101006.22
2022-10-29T16:32:44.309Z,100998.19
2022-10-29T16:35:18.650Z,101005.78
2022-10-29T16:37:45.986Z,101002.09
2022-10-29T16:40:13.836Z,101001.28
2022-10-29T16:42:41.353Z,101002.91
2022-10-29T16:45:13.915Z,101009.22
2022-10-29T16:47:41.179Z,101005.25
2022-10-29T16:50:19.768Z,101000.59
2022-10-29T16:52:47.399Z,101004.69
2022-10-29T16:55:14.894Z,101021.66
2022-10-29T16:57:42.274Z,101025.28
2022-10-29T17:00:09.980Z,101029.66
2022-10-29T17:02:38.211Z,101026.84
2022-10-29T17:05:06.937Z,101039.81
2022-10-29T17:07:34.140Z,101044.41
2022-10-29T17:10:01.409Z,101037.72
2022-10-29T17:12:28.688Z,101029.91
2022-10-29T17:14:55.883Z,101046.00
2022-10-29T17:17:23.194Z,101041.16
2022-10-29T17:19:50.486Z,101037.16
2022-10-29T17:22:17.776Z,101033.09
2022-10-29T17:24:45.442Z,101034.72
2022-10-29T17:27:12.879Z,101050.59
2022-10-29T17:29:40.162Z,101057.03
2022-10-29T17:32:07.847Z,101059.44
2022-10-29T17:34:35.406Z,101053.72
2022-10-29T17:37:02.820Z,101050.88
2022-10-29T17:39:30.191Z,101033.69
2022-10-29T17:41:57.578Z,101044.41
2022-10-29T17:44:26.477Z,101038.72
2022-10-29T17:46:54.865Z,101046.72
2022-10-29T17:49:22.690Z,101048.34
2022-10-29T17:51:49.950Z,101052.22
2022-10-29T17:54:17.385Z,101054.84
2022-10-29T17:56:44.647Z,101051.38
2022-10-29T17:59:12.395Z,101066.97
2022-10-29T18:01:39.862Z,101074.06
2022-10-29T18:04:07.327Z,101070.56
2022-10-29T18:06:34.598Z,101075.66
2022-10-29T18:09:02.226Z,101086.47
2022-10-29T18:11:29.709Z,101093.84
2022-10-29T18:13:57.537Z,101086.59
2022-10-29T18:16:26.996Z,101090.94
2022-10-29T18:19:01.921Z,101089.41
2022-10-29T18:21:30.943Z,101095.28
2022-10-29T18:23:58.366Z,101095.69
2022-10-29T18:26:30.859Z,101102.56
2022-10-29T18:28:59.871Z,101097.78
2022-10-29T18:31:30.134Z,101103.53
2022-10-29T18:33:58.410Z,101106.41
2022-10-29T18:36:25.772Z,101107.91
2022-10-29T18:38:54.874Z,101114.22
2022-10-29T18:41:22.671Z,101123.56
2022-10-29T18:43:50.864Z,101122.81
2022-10-29T18:46:18.835Z,101124.38
2022-10-29T18:48:47.333Z,101126.16
2022-10-29T18:51:21.668Z,101120.66
2022-10-29T18:53:48.952Z,101122.19
2022-10-29T18:56:18.212Z,101126.66
2022-10-29T18:58:45.668Z,101138.13
2022-10-29T19:01:15.639Z,101128.03
2022-10-29T19:03:43.666Z,101132.41
2022-10-29T19:06:13.070Z,101126.03
2022-10-29T19:08:42.384Z,101130.50
2022-10-29T19:11:12.002Z,101129.38
2022-10-29T19:13:39.358Z,101131.72
2022-10-29T19:16:09.098Z,101130.09
2022-10-29T19:18:37.384Z,101137.19
2022-10-29T19:21:09.624Z,101128.84
2022-10-29T19:23:37.052Z,101129.59
2022-10-29T19:26:15.390Z,101115.19
2022-10-29T19:28:44.411Z,101128.03
2022-10-29T19:31:15.224Z,101117.38
2022-10-29T19:33:42.900Z,101127.31
2022-10-29T19:36:10.311Z,101116.22
2022-10-29T19:38:38.529Z,101111.31
2022-10-29T19:41:05.858Z,101112.78
2022-10-29T19:43:33.368Z,101112.66
2022-10-29T19:46:01.187Z,101114.22
2022-10-29T19:48:28.474Z,101119.19
2022-10-29T19:50:56.640Z,101123.31
2022-10-29T19:53:25.185Z,101129.19
2022-10-29T19:55:53.771Z,101118.81
2022-10-29T19:58:22.852Z,101120.09
2022-10-29T20:00:50.189Z,101122.78
2022-10-29T20:03:18.127Z,101122.00
2022-10-29T20:05:46.133Z,101132.06
2022-10-29T20:08:15.978Z,101136.56
2022-10-29T20:10:46.237Z,101139.19
2022-10-29T20:13:13.508Z,101145.34
2022-10-29T20:15:40.790Z,101131.03
2022-10-29T20:18:08.462Z,101145.22
2022-10-29T20:20:35.653Z,101133.13
2022-10-29T20:23:03.023Z,101140.91
2022-10-29T20:25:30.406Z,101134.81
2022-10-29T20:27:59.432Z,101136.97
2022-10-29T20:30:27.518Z,101132.13
2022-10-29T20:32:54.963Z,101150.19
2022-10-29T20:35:22.381Z,101145.69
2022-10-29T20:37:49.640Z,101150.66
2022-10-29T20:40:17.011Z,101140.97
2022-10-29T20:42:44.313Z,101119.69
2022-10-29T20:45:11.761Z,101129.84
2022-10-29T20:47:38.925Z,101132.31
2022-10-29T20:50:06.534Z,101126.22
2022-10-29T20:52:33.801Z,101132.63
2022-10-29T20:55:01.103Z,101146.91
2022-10-29T20:57:28.330Z,101149.28
2022-10-29T20:59:55.543Z,101141.88
2022-10-29T21:02:22.868Z,101138.63
2022-10-29T21:04:50.467Z,101142.03
2022-10-29T21:07:18.783Z,101144.84
2022-10-29T21:09:47.389Z,101151.09
2022-10-29T21:12:14.661Z,101153.31
2022-10-29T21:14:41.981Z,101150.97
2022-10-29T21:17:09.152Z,101162.50
2022-10-29T21:19:36.584Z,101157.25
2022-10-29T21:22:03.915Z,101156.81
2022-10-29T21:24:31.236Z,101160.97
2022-10-29T21:26:58.427Z,101161.56
2022-10-29T21:29:25.662Z,101168.81
2022-10-29T21:31:52.818Z,101168.06
2022-10-29T21:34:19.986Z,101168.53
2022-10-29T21:36:47.272Z,101173.84
2022-10-29T21:39:14.450Z,101173.34
2022-10-29T21:41:41.660Z,101178.94
2022-10-29T21:44:09.041Z,101173.28
2022-10-29T21:46:36.323Z,101173.72
2022-10-29T21:49:03.605Z,101172.25
2022-10-29T21:51:30.999Z,101181.41
2022-10-29T21:53:58.455Z,101178.56
2022-10-29T21:56:25.761Z,101175.72
2022-10-29T21:58:53.000Z,101171.19
2022-10-29T22:01:20.314Z,101175.38
2022-10-29T22:03:47.825Z,101180.56
2022-10-29T22:06:20.245Z,101165.44
2022-10-29T22:08:51.808Z,101171.00
2022-10-29T22:11:19.053Z,101168.56
2022-10-29T22:13:46.696Z,101164.69
2022-10-29T22:16:14.549Z,101174.59
2022-10-29T22:18:41.796Z,101170.66
2022-10-29T22:21:15.026Z,101168.88
2022-10-29T22:23:47.369Z,101170.00
2022-10-29T22:26:15.773Z,101176.59
2022-10-29T22:28:43.157Z,101171.44
2022-10-29T22:31:10.997Z,101164.53
2022-10-29T22:33:39.068Z,101164.47
2022-10-29T22:36:14.718Z,101161.88
2022-10-29T22:38:41.948Z,101154.00
2022-10-29T22:41:11.986Z,101161.41
2022-10-29T22:43:39.295Z,101163.22
2022-10-29T22:46:07.931Z,101153.00
2022-10-29T22:48:35.438Z,101152.81
2022-10-29T22:51:03.630Z,101156.53
2022-10-29T22:53:31.640Z,101152.63
2022-10-29T22:55:59.462Z,101160.22
2022-10-29T22:58:26.751Z,101158.47
2022-10-29T23:01:30.513Z,101156.69
2022-10-29T23:03:58.825Z,101155.47
2022-10-29T23:06:26.929Z,101160.94
2022-10-29T23:08:56.063Z,101154.94
2022-10-29T23:11:25.624Z,101153.94
2022-10-29T23:13:54.045Z,101153.94
2022-10-29T23:16:22.100Z,101146.41
2022-10-29T23:18:50.691Z,101154.06
2022-10-29T23:21:18.463Z,101149.97
2022-10-29T23:23:46.419Z,101144.63
2022-10-29T23:26:15.126Z,101149.81
2022-10-29T23:28:42.514Z,101149.09
2022-10-29T23:31:14.890Z,101147.97
2022-10-29T23:33:46.652Z,101140.69
2022-10-29T23:36:15.131Z,101141.66
2022-10-29T23:38:42.344Z,101145.34
2022-10-29T23:41:09.693Z,101155.59
2022-10-29T23:43:37.191Z,101141.59
2022-10-29T23:46:05.393Z,101137.22
2022-10-29T23:48:32.708Z,101132.91
2022-10-29T23:50:59.946Z,101137.09
2022-10-29T23:53:27.245Z,101129.59
2022-10-29T23:55:54.527Z,101133.63
2022-10-29T23:58:21.739Z,101126.34
